sensor_id;sensor_type;location;lat;lon;timestamp;temperature;humidity
6954;DHT22;3516;47.980;8.808;2023-06-10T06:01:10;36.50;44.60
6954;DHT22;3516;47.980;8.808;2023-06-10T06:03:37;35.80;44.80
6954;DHT22;3516;47.980;8.808;2023-06-10T06:06:04;35.20;45.80
6954;DHT22;3516;47.980;8.808;2023-06-10T06:08:31;34.90;47.10
6954;DHT22;3516;47.980;8.808;2023-06-10T06:10:57;34.90;46.90
6954;DHT22;3516;47.980;8.808;2023-06-10T06:13:24;35.00;47.50
6954;DHT22;3516;47.980;8.808;2023-06-10T06:15:52;35.50;45.90
6954;DHT22;3516;47.980;8.808;2023-06-10T06:18:19;35.80;45.90
6954;DHT22;3516;47.980;8.808;2023-06-10T06:20:45;36.30;44.50
6954;DHT22;3516;47.980;8.808;2023-06-10T06:23:12;36.00;45.40
6954;DHT22;3516;47.980;8.808;2023-06-10T06:25:39;35.90;44.50
6954;DHT22;3516;47.980;8.808;2023-06-10T06:28:06;35.20;45.70
6954;DHT22;3516;47.980;8.808;2023-06-10T06:30:32;35.20;45.60
6954;DHT22;3516;47.980;8.808;2023-06-10T06:33:00;35.40;45.40
6954;DHT22;3516;47.980;8.808;2023-06-10T06:35:30;35.80;44.60
6954;DHT22;3516;47.980;8.808;2023-06-10T06:37:56;36.00;44.30
6954;DHT22;3516;47.980;8.808;2023-06-10T06:40:24;35.60;45.00
6954;DHT22;3516;47.980;8.808;2023-06-10T06:42:50;36.00;45.40
6954;DHT22;3516;47.980;8.808;2023-06-10T06:45:17;36.80;43.50
6954;DHT22;3516;47.980;8.808;2023-06-10T06:47:44;37.00;43.60
6954;DHT22;3516;47.980;8.808;2023-06-10T06:50:12;37.10;44.70
6954;DHT22;3516;47.980;8.808;2023-06-10T06:52:39;37.40;43.20
6954;DHT22;3516;47.980;8.808;2023-06-10T06:55:06;38.10;40.50
6954;DHT22;3516;47.980;8.808;2023-06-10T06:57:33;38.70;38.20
6954;DHT22;3516;47.980;8.808;2023-06-10T07:00:00;39.10;35.10
6954;DHT22;3516;47.980;8.808;2023-06-10T07:02:27;39.10;34.20
6954;DHT22;3516;47.980;8.808;2023-06-10T07:04:53;38.20;34.40
6954;DHT22;3516;47.980;8.808;2023-06-10T07:07:22;38.00;34.20
6954;DHT22;3516;47.980;8.808;2023-06-10T07:09:49;38.00;33.80
6954;DHT22;3516;47.980;8.808;2023-06-10T07:12:16;37.70;34.60
6954;DHT22;3516;47.980;8.808;2023-06-10T07:14:43;37.90;33.50
6954;DHT22;3516;47.980;8.808;2023-06-10T07:17:10;37.20;33.30
6954;DHT22;3516;47.980;8.808;2023-06-10T07:19:36;37.00;33.60
6954;DHT22;3516;47.980;8.808;2023-06-10T07:22:03;37.10;33.70
6954;DHT22;3516;47.980;8.808;2023-06-10T07:24:31;37.40;32.00
6954;DHT22;3516;47.980;8.808;2023-06-10T07:26:58;37.40;32.80
6954;DHT22;3516;47.980;8.808;2023-06-10T07:29:25;36.90;33.90
6954;DHT22;3516;47.980;8.808;2023-06-10T07:31:52;36.80;34.30
6954;DHT22;3516;47.980;8.808;2023-06-10T07:34:19;37.20;33.40
6954;DHT22;3516;47.980;8.808;2023-06-10T07:36:46;37.60;31.80
6954;DHT22;3516;47.980;8.808;2023-06-10T07:39:13;37.00;32.10
6954;DHT22;3516;47.980;8.808;2023-06-10T07:41:41;36.40;33.40
6954;DHT22;3516;47.980;8.808;2023-06-10T07:44:08;35.60;34.90
6954;DHT22;3516;47.980;8.808;2023-06-10T07:46:35;35.70;33.70
6954;DHT22;3516;47.980;8.808;2023-06-10T07:49:03;36.20;32.90
6954;DHT22;3516;47.980;8.808;2023-06-10T07:51:30;36.90;32.00
6954;DHT22;3516;47.980;8.808;2023-06-10T07:53:59;36.90;31.50
6954;DHT22;3516;47.980;8.808;2023-06-10T07:56:25;37.00;31.60
6954;DHT22;3516;47.980;8.808;2023-06-10T07:58:53;36.60;30.80
6954;DHT22;3516;47.980;8.808;2023-06-10T08:01:20;36.20;31.50
6954;DHT22;3516;47.980;8.808;2023-06-10T08:03:47;36.10;31.80
6954;DHT22;3516;47.980;8.808;2023-06-10T08:06:14;35.30;31.30
6954;DHT22;3516;47.980;8.808;2023-06-10T08:08:42;34.00;33.10
6954;DHT22;3516;47.980;8.808;2023-06-10T08:11:12;32.70;35.30
6954;DHT22;3516;47.980;8.808;2023-06-10T08:13:39;31.50;35.30
6954;DHT22;3516;47.980;8.808;2023-06-10T08:16:07;29.80;37.10
6954;DHT22;3516;47.980;8.808;2023-06-10T08:18:34;28.70;40.20
6954;DHT22;3516;47.980;8.808;2023-06-10T08:21:00;27.50;42.30
6954;DHT22;3516;47.980;8.808;2023-06-10T08:23:27;26.80;43.80
6954;DHT22;3516;47.980;8.808;2023-06-10T08:25:54;26.20;45.50
6954;DHT22;3516;47.980;8.808;2023-06-10T08:28:21;25.70;46.60
6954;DHT22;3516;47.980;8.808;2023-06-10T08:30:47;25.30;48.30
6954;DHT22;3516;47.980;8.808;2023-06-10T08:33:15;25.00;51.20
6954;DHT22;3516;47.980;8.808;2023-06-10T08:35:42;24.90;52.00
6954;DHT22;3516;47.980;8.808;2023-06-10T08:38:09;24.90;52.80
6954;DHT22;3516;47.980;8.808;2023-06-10T17:11:27;23.80;55.70
6954;DHT22;3516;47.980;8.808;2023-06-10T17:13:55;23.70;55.90
6954;DHT22;3516;47.980;8.808;2023-06-10T17:16:22;23.60;56.30
6954;DHT22;3516;47.980;8.808;2023-06-10T17:18:48;23.50;56.90
6954;DHT22;3516;47.980;8.808;2023-06-10T17:21:15;23.40;57.60
6954;DHT22;3516;47.980;8.808;2023-06-10T17:23:42;23.30;57.30
6954;DHT22;3516;47.980;8.808;2023-06-10T17:26:09;23.30;56.70
6954;DHT22;3516;47.980;8.808;2023-06-10T17:28:37;23.20;56.80
6954;DHT22;3516;47.980;8.808;2023-06-10T17:31:04;23.10;56.60
6954;DHT22;3516;47.980;8.808;2023-06-10T17:33:30;23.10;56.70
6954;DHT22;3516;47.980;8.808;2023-06-10T17:35:57;23.10;56.50
6954;DHT22;3516;47.980;8.808;2023-06-10T17:38:24;23.10;56.20
6954;DHT22;3516;47.980;8.808;2023-06-10T17:40:50;23.10;56.70
6954;DHT22;3516;47.980;8.808;2023-06-10T17:43:17;23.10;56.80
6954;DHT22;3516;47.980;8.808;2023-06-10T17:45:47;23.10;56.20
